LTBU/TEQ METAR and TAF weather

Enter ICAO airport designator
Station Type Date Time Source
LTBU METAR 2022/11/30 09:50 UTC NOAA

LTBU 300950Z 04014KT 8000 -RA BKN013 BKN025 12/10 Q1017


Station Type Date Time Source
LTBU Decoded METAR 2022/11/30 09:50 UTC NOAA

Corlu, Turkey (LTBU) 41-08N 027-55E
Nov 30, 2022 - 04:50 AM EST / 2022.11.30 0950 UTC
Wind: from the NE (040 degrees) at 16 MPH (14 KT):0
Visibility: 4 mile(s):0
Sky conditions: mostly cloudy
Weather: light rain
Temperature: 53 F (12 C)
Dew Point: 50 F (10 C)
Relative Humidity: 87%
Pressure (altimeter): 30.03 in. Hg (1017 hPa)
ob: LTBU 300950Z 04014KT 8000 -RA BKN013 BKN025 12/10 Q1017
cycle: 10

Station Type Date Time Source
LTBU TAF 2022/11/30 06:03 UTC NOAA

TAF LTBU 300440Z 3006/0106 05018G28KT 9999 -RA FEW014 BKN032 BKN080
BECMG 3015/3018 -SHRA FEW010 BKN025 BKN080

Example: see airport list